»·PEaware :: N141GF L71-46CA

N141GF :: L71-46CA

FLIGHT INFORMATION

Flight Status: Arrived
Operator: Privately registered:
United States
More flights under this callsign
Pilot: Steve K. (2395)
Aircraft: BOEING VERTOL CHINOOK MODEL 234
(H47)
More flights by this aircraft type
Origin: L71 California City Mun
United States
Destination: 46CA Rancho Vallecito
United States
More flights between these airports :: More routes between these airports
Route: JLI DIRECT
File this flight plan on PilotEdge
Remarks:
Altitude:
(Current/Filed)
7,500ft
Speed:
(Current/Filed)
180kts
Departed: 30-Apr-15 05:44 AM
Arrived: 30-Apr-15 06:35 AM
Distance/Time
Traveled:
153nm/0:51
Distance/Time
To Go:
Arrived

Flight Plot

Page will automatically refresh every two minutes.


Map Options




Map Legend


Flown Route
Filed Route
Departure Airport
Arrival Airport
Navaid (VOR, NDB)
Fix

Horizontal Profiles

Position Reports

Time Latitude Longitude Heading Altitude Ground
Speed
30-Apr-15 05:41 34.882835 -117.808818 148 8114ft 164kts
30-Apr-15 05:42 34.845726 -117.777904 148 8116ft 164kts
30-Apr-15 05:43 34.808664 -117.746950 148 8121ft 163kts
30-Apr-15 05:44 34.771407 -117.715718 148 8129ft 162kts
30-Apr-15 05:45 34.734478 -117.684664 148 8141ft 161kts
30-Apr-15 05:46 34.698661 -117.654529 148 8152ft 160kts
30-Apr-15 05:47 34.662163 -117.623771 148 8159ft 159kts
30-Apr-15 05:48 34.625854 -117.593121 148 8163ft 159kts
30-Apr-15 05:49 34.589590 -117.562431 148 8163ft 159kts
30-Apr-15 05:50 34.553508 -117.531820 148 8163ft 159kts
30-Apr-15 05:51 34.517380 -117.501167 148 8163ft 159kts
30-Apr-15 05:52 34.481630 -117.470886 148 8162ft 159kts
30-Apr-15 05:53 34.446486 -117.441189 148 8163ft 159kts
30-Apr-15 05:54 34.411493 -117.411711 148 8163ft 158kts
30-Apr-15 05:55 34.375280 -117.381467 148 8151ft 158kts
30-Apr-15 05:56 34.338878 -117.351800 148 8126ft 158kts
30-Apr-15 05:57 34.302679 -117.323101 148 8107ft 159kts
30-Apr-15 05:58 34.265338 -117.294302 148 8086ft 161kts
30-Apr-15 05:59 34.228057 -117.265833 147 8085ft 164kts
30-Apr-15 06:00 34.189839 -117.236463 147 8073ft 164kts
30-Apr-15 06:01 34.158421 -117.212099 147 8075ft 165kts
30-Apr-15 06:02 34.120187 -117.182141 147 8078ft 165kts
30-Apr-15 06:03 34.082577 -117.152350 147 8081ft 165kts
30-Apr-15 06:04 34.045154 -117.122440 147 8083ft 164kts
30-Apr-15 06:05 34.001306 -117.087236 147 8084ft 164kts
30-Apr-15 06:06 33.969624 -117.061798 147 8084ft 164kts
30-Apr-15 06:07 33.931904 -117.031508 147 8084ft 164kts
30-Apr-15 06:08 33.897571 -117.003958 147 8081ft 165kts
30-Apr-15 06:09 33.859217 -116.973345 147 8072ft 165kts
30-Apr-15 06:10 33.821580 -116.943527 147 8319ft 160kts
30-Apr-15 06:11 33.782990 -116.913108 147 8300ft 169kts
30-Apr-15 06:12 33.745592 -116.883650 148 8286ft 171kts
30-Apr-15 06:13 33.705743 -116.852127 147 8283ft 171kts
30-Apr-15 06:14 33.666179 -116.820714 147 8281ft 171kts
30-Apr-15 06:15 33.626746 -116.789306 147 8380ft 167kts
30-Apr-15 06:16 33.583477 -116.770518 175 8409ft 171kts
30-Apr-15 06:17 33.536803 -116.764352 175 8404ft 170kts
30-Apr-15 06:18 33.490084 -116.758435 175 8415ft 169kts
30-Apr-15 06:19 33.445138 -116.749223 166 8421ft 168kts
30-Apr-15 06:20 33.402836 -116.735493 166 8424ft 167kts
30-Apr-15 06:21 33.358551 -116.719788 147 8397ft 168kts
30-Apr-15 06:22 33.322853 -116.686208 155 8445ft 165kts
30-Apr-15 06:23 33.282490 -116.662947 155 8452ft 164kts
30-Apr-15 06:24 33.242479 -116.639726 155 8454ft 164kts
30-Apr-15 06:25 33.202112 -116.614486 138 7649ft 169kts
30-Apr-15 06:26 33.169531 -116.575675 137 6644ft 167kts
30-Apr-15 06:27 33.125573 -116.564484 173 6808ft 162kts
30-Apr-15 06:28 33.090257 -116.533969 145 6952ft 163kts
30-Apr-15 06:29 33.055437 -116.505487 147 7127ft 166kts
30-Apr-15 06:30 33.021187 -116.475733 141 6053ft 154kts
30-Apr-15 06:31 32.990660 -116.446357 136 4276ft 124kts
30-Apr-15 06:32 32.974061 -116.419011 111 2143ft 93kts
30-Apr-15 06:33 32.970101 -116.407877 111 1687ft 0kts

Navigation Log

Ident Type
Flight plan parsing failed, navigation log unavailable